createdAt,value
2019-06-10T00:00:13.477Z,12.53
2019-06-10T00:02:45.212Z,12.23
2019-06-10T00:05:21.637Z,13.40
2019-06-10T00:07:55.813Z,11.40
2019-06-10T00:10:31.027Z,12.07
2019-06-10T00:15:38.036Z,11.40
2019-06-10T00:18:34.022Z,10.03
2019-06-10T00:20:47.189Z,10.65
2019-06-10T00:23:21.244Z,10.85
2019-06-10T00:25:54.495Z,9.95
2019-06-10T00:28:27.896Z,10.38
2019-06-10T00:31:03.694Z,12.10
2019-06-10T00:33:35.917Z,11.43
2019-06-10T00:36:13.274Z,11.15
2019-06-10T00:38:43.950Z,11.80
2019-06-10T00:41:17.244Z,11.65
2019-06-10T00:43:51.710Z,10.80
2019-06-10T00:46:24.957Z,10.55
2019-06-10T00:48:58.150Z,10.93
2019-06-10T00:51:31.553Z,10.80
2019-06-10T00:54:06.549Z,10.58
2019-06-10T00:56:41.344Z,11.43
2019-06-10T00:59:15.413Z,10.55
2019-06-10T01:01:50.715Z,10.23
2019-06-10T01:06:55.933Z,10.03
2019-06-10T01:09:31.062Z,10.38
2019-06-10T01:12:04.841Z,9.45
2019-06-10T01:14:37.968Z,10.48
2019-06-10T01:17:14.039Z,9.65
2019-06-10T01:19:47.013Z,9.60
2019-06-10T01:22:21.257Z,10.08
2019-06-10T01:24:54.530Z,11.05
2019-06-10T01:27:27.923Z,9.95
2019-06-10T01:30:03.089Z,10.45
2019-06-10T01:32:37.281Z,10.38
2019-06-10T01:35:11.512Z,10.10
2019-06-10T01:37:45.510Z,10.32
2019-06-10T01:40:20.778Z,9.38
2019-06-10T01:42:53.432Z,10.72
2019-06-10T01:45:27.958Z,10.35
2019-06-10T01:48:01.493Z,10.05
2019-06-10T01:50:34.650Z,10.60
2019-06-10T01:53:09.356Z,10.18
2019-06-10T01:55:42.879Z,10.53
2019-06-10T01:58:18.339Z,10.58
2019-06-10T02:01:01.685Z,10.18
2019-06-10T02:03:34.943Z,9.75
2019-06-10T02:06:08.778Z,10.20
2019-06-10T02:08:42.046Z,8.73
2019-06-10T02:11:17.287Z,8.88
2019-06-10T02:13:51.526Z,8.05
2019-06-10T02:16:24.800Z,8.15
2019-06-10T02:19:03.394Z,7.92
2019-06-10T02:21:32.828Z,7.40
2019-06-10T02:24:06.017Z,7.80
2019-06-10T02:26:41.040Z,6.97
2019-06-10T02:29:14.685Z,7.87
2019-06-10T02:31:51.881Z,7.08
2019-06-10T02:34:27.274Z,8.33
2019-06-10T02:39:35.102Z,8.10
2019-06-10T02:44:40.063Z,8.15
2019-06-10T02:47:16.862Z,8.28
2019-06-10T02:50:01.405Z,7.87
2019-06-10T02:52:32.242Z,7.80
2019-06-10T02:57:39.021Z,8.65
2019-06-10T03:02:45.572Z,7.78
2019-06-10T03:05:22.306Z,8.45
2019-06-10T03:07:54.187Z,7.70
2019-06-10T03:10:32.815Z,9.43
2019-06-10T03:13:02.551Z,8.28
2019-06-10T03:15:37.315Z,8.70
2019-06-10T03:18:12.822Z,7.78
2019-06-10T03:20:45.341Z,8.33
2019-06-10T03:23:18.433Z,8.60
2019-06-10T03:26:04.470Z,8.73
2019-06-10T03:28:37.616Z,8.50
2019-06-10T03:31:15.199Z,8.38
2019-06-10T03:33:47.609Z,7.83
2019-06-10T03:36:20.189Z,9.03
2019-06-10T03:38:53.821Z,8.38
2019-06-10T03:41:28.004Z,9.10
2019-06-10T03:44:02.535Z,9.10
2019-06-10T03:46:35.901Z,9.45
2019-06-10T03:49:09.304Z,8.40
2019-06-10T03:51:42.983Z,8.30
2019-06-10T03:54:17.162Z,8.95
2019-06-10T03:56:52.101Z,8.70
2019-06-10T04:01:58.954Z,8.35
2019-06-10T04:04:33.067Z,7.90
2019-06-10T04:07:06.365Z,8.05
2019-06-10T04:09:39.454Z,6.55
2019-06-10T04:12:12.749Z,6.62
2019-06-10T04:14:45.944Z,6.75
2019-06-10T04:17:19.573Z,6.05
2019-06-10T04:20:07.932Z,5.12
2019-06-10T04:22:28.506Z,5.25
2019-06-10T04:25:03.035Z,5.40
2019-06-10T04:27:36.309Z,4.50
2019-06-10T04:30:09.508Z,4.17
2019-06-10T04:32:43.020Z,4.53
2019-06-10T04:35:16.204Z,3.35
2019-06-10T04:37:49.391Z,3.42
2019-06-10T04:40:23.544Z,3.25
2019-06-10T04:42:57.081Z,3.80
2019-06-10T04:45:32.366Z,3.05
2019-06-10T04:48:04.933Z,3.15
2019-06-10T04:50:45.598Z,3.40
2019-06-10T04:53:12.981Z,2.70
2019-06-10T04:55:46.048Z,3.20
2019-06-10T04:58:19.536Z,2.90
2019-06-10T05:00:53.045Z,2.87
2019-06-10T05:03:27.981Z,3.02
2019-06-10T05:06:03.332Z,3.47
2019-06-10T05:11:08.252Z,2.60
2019-06-10T05:13:42.913Z,2.95
2019-06-10T05:16:16.241Z,2.50
2019-06-10T05:18:51.715Z,2.50
2019-06-10T05:21:26.689Z,2.60
2019-06-10T05:23:58.927Z,2.30
2019-06-10T05:26:33.573Z,5.17
2019-06-10T05:29:06.614Z,3.25
2019-06-10T05:31:39.919Z,3.33
2019-06-10T05:34:13.333Z,2.55
2019-06-10T05:36:46.431Z,3.22
2019-06-10T05:39:20.751Z,3.42
2019-06-10T05:41:54.456Z,2.55
2019-06-10T05:44:28.423Z,2.60
2019-06-10T05:47:03.632Z,2.52
2019-06-10T05:49:36.400Z,2.00
2019-06-10T05:52:09.216Z,2.20
2019-06-10T05:54:43.109Z,2.00
2019-06-10T05:57:16.063Z,2.20
2019-06-10T05:59:48.856Z,2.37
2019-06-10T06:02:22.383Z,2.10
2019-06-10T06:04:56.637Z,2.40
2019-06-10T06:07:29.566Z,2.65
2019-06-10T06:10:02.662Z,2.62
2019-06-10T06:12:37.762Z,2.63
2019-06-10T06:15:12.966Z,2.20
2019-06-10T06:17:45.501Z,2.30
2019-06-10T06:20:18.320Z,2.15
2019-06-10T06:22:52.293Z,2.20
2019-06-10T06:25:27.600Z,2.37
2019-06-10T06:28:02.932Z,2.27
2019-06-10T06:30:36.444Z,2.22
2019-06-10T06:35:46.054Z,2.50
2019-06-10T06:38:16.992Z,2.87
2019-06-10T06:40:53.552Z,3.27
2019-06-10T06:43:24.622Z,2.27
2019-06-10T06:45:57.600Z,2.60
2019-06-10T06:48:33.597Z,2.70
2019-06-10T06:51:15.347Z,2.50
2019-06-10T06:53:52.965Z,4.17
2019-06-10T06:58:56.294Z,2.40
2019-06-10T07:01:30.315Z,2.80
2019-06-10T07:04:04.089Z,2.52
2019-06-10T07:06:38.549Z,2.70
2019-06-10T07:09:13.468Z,2.47
2019-06-10T07:11:46.296Z,2.37
2019-06-10T07:14:20.025Z,2.72
2019-06-10T07:16:54.096Z,2.55
2019-06-10T07:19:28.559Z,2.50
2019-06-10T07:22:11.496Z,2.42
2019-06-10T07:24:39.278Z,2.67
2019-06-10T07:29:47.177Z,2.92
2019-06-10T07:32:19.746Z,2.85
2019-06-10T07:34:52.943Z,2.62
2019-06-10T07:37:26.137Z,2.08
2019-06-10T07:39:59.325Z,2.47
2019-06-10T07:42:33.243Z,3.30
2019-06-10T07:45:07.656Z,2.72
2019-06-10T07:47:41.711Z,2.95
2019-06-10T07:52:47.303Z,3.42
2019-06-10T07:55:22.172Z,2.95
2019-06-10T07:57:55.056Z,3.37
2019-06-10T08:00:27.948Z,2.58
2019-06-10T08:03:02.801Z,3.60
2019-06-10T08:08:08.958Z,2.95
2019-06-10T08:10:44.850Z,3.02
2019-06-10T08:15:49.256Z,2.80
2019-06-10T08:18:22.574Z,2.83
2019-06-10T08:20:56.671Z,3.02
2019-06-10T08:23:32.692Z,2.40
2019-06-10T08:28:37.561Z,2.77
2019-06-10T08:31:12.408Z,1.95
2019-06-10T08:33:47.321Z,3.67
2019-06-10T08:36:22.254Z,2.55
2019-06-10T08:38:54.449Z,2.52
2019-06-10T08:41:27.534Z,2.33
2019-06-10T08:44:02.299Z,2.58
2019-06-10T08:46:36.773Z,2.92
2019-06-10T08:49:12.624Z,2.35
2019-06-10T08:54:19.026Z,2.35
2019-06-10T08:56:54.011Z,2.02
2019-06-10T08:59:26.708Z,2.40
2019-06-10T09:01:59.837Z,2.08
2019-06-10T09:04:33.176Z,2.35
2019-06-10T09:07:06.429Z,2.35
2019-06-10T09:09:40.522Z,2.25
2019-06-10T09:12:28.660Z,1.95
2019-06-10T09:14:53.142Z,2.35
2019-06-10T09:17:25.545Z,2.15
2019-06-10T09:19:58.552Z,1.75
2019-06-10T09:22:32.687Z,1.70
2019-06-10T09:25:07.686Z,1.45
2019-06-10T09:27:42.580Z,1.80
2019-06-10T09:30:15.463Z,2.00
2019-06-10T09:32:52.041Z,1.95
2019-06-10T09:35:24.073Z,2.22
2019-06-10T09:37:57.340Z,2.02
2019-06-10T09:40:59.305Z,2.08
2019-06-10T09:43:26.544Z,2.80
2019-06-10T09:45:59.637Z,2.12
2019-06-10T09:48:33.721Z,2.10
2019-06-10T09:51:06.949Z,1.65
2019-06-10T09:53:46.486Z,1.70
2019-06-10T09:56:14.933Z,1.70
2019-06-10T09:58:50.772Z,1.85
2019-06-10T10:01:24.506Z,2.00
2019-06-10T10:04:00.105Z,2.00
2019-06-10T10:09:06.946Z,1.62
2019-06-10T10:11:44.101Z,1.87
2019-06-10T10:14:15.973Z,1.50
2019-06-10T10:16:52.839Z,1.85
2019-06-10T10:19:25.011Z,1.62
2019-06-10T10:21:58.671Z,1.80
2019-06-10T10:24:34.059Z,1.47
2019-06-10T10:27:09.381Z,1.60
2019-06-10T10:32:15.070Z,1.85
2019-06-10T10:34:48.698Z,2.12
2019-06-10T10:37:22.996Z,1.45
2019-06-10T10:39:57.477Z,1.55
2019-06-10T10:42:44.593Z,1.80
2019-06-10T10:45:08.498Z,1.70
2019-06-10T10:47:42.747Z,1.55
2019-06-10T10:50:15.936Z,1.60
2019-06-10T10:52:49.909Z,1.57
2019-06-10T10:55:23.051Z,1.52
2019-06-10T10:57:55.981Z,1.80
2019-06-10T11:00:37.346Z,1.60
2019-06-10T11:03:06.864Z,1.40
2019-06-10T11:05:39.865Z,1.50
2019-06-10T11:08:14.299Z,1.62
2019-06-10T11:10:48.208Z,1.90
2019-06-10T11:13:22.398Z,1.35
2019-06-10T11:15:57.111Z,1.72
2019-06-10T11:18:30.123Z,1.45
2019-06-10T11:21:05.116Z,1.40
2019-06-10T11:23:38.182Z,1.67
2019-06-10T11:26:13.177Z,1.70
2019-06-10T11:28:47.369Z,1.62
2019-06-10T11:31:22.592Z,1.40
2019-06-10T11:33:57.857Z,2.08
2019-06-10T11:36:29.945Z,1.55
2019-06-10T11:39:05.238Z,1.22
2019-06-10T11:41:39.635Z,1.70
2019-06-10T11:44:12.661Z,1.57
2019-06-10T11:46:46.639Z,1.82
2019-06-10T11:49:19.797Z,1.50
2019-06-10T11:51:55.980Z,1.50
2019-06-10T11:54:27.275Z,1.40
2019-06-10T11:57:00.197Z,1.55
2019-06-10T11:59:33.187Z,1.62
2019-06-10T12:02:06.404Z,2.00
2019-06-10T12:04:39.371Z,1.65
2019-06-10T12:07:13.445Z,1.60
2019-06-10T12:09:47.191Z,1.35
2019-06-10T12:12:22.022Z,1.45
2019-06-10T12:14:58.224Z,1.70
2019-06-10T12:20:05.942Z,1.72
2019-06-10T12:22:42.278Z,1.80
2019-06-10T12:25:31.430Z,1.52
2019-06-10T12:27:52.441Z,1.60
2019-06-10T12:30:25.020Z,1.70
2019-06-10T12:32:59.505Z,1.75
2019-06-10T12:38:06.393Z,1.32
2019-06-10T12:40:39.452Z,1.67
2019-06-10T12:43:12.793Z,1.70
2019-06-10T12:45:45.646Z,2.00
2019-06-10T12:48:22.218Z,1.55
2019-06-10T12:50:57.349Z,1.42
2019-06-10T12:53:32.384Z,1.55
2019-06-10T12:56:10.586Z,1.70
2019-06-10T12:58:43.194Z,2.00
2019-06-10T13:03:47.563Z,1.87
2019-06-10T13:06:23.339Z,1.92
2019-06-10T13:11:32.689Z,1.80
2019-06-10T13:14:06.621Z,1.75
2019-06-10T13:16:39.411Z,1.80
2019-06-10T13:19:13.302Z,1.80
2019-06-10T13:21:46.695Z,1.90
2019-06-10T13:24:22.325Z,1.60
2019-06-10T13:26:54.553Z,1.70
2019-06-10T13:29:27.499Z,1.80
2019-06-10T13:32:02.798Z,1.55
2019-06-10T13:37:08.639Z,1.87
2019-06-10T13:42:15.409Z,2.05
2019-06-10T13:44:48.308Z,2.10
2019-06-10T13:47:26.097Z,2.20
2019-06-10T13:52:32.024Z,2.25
2019-06-10T13:55:08.836Z,1.55
2019-06-10T13:57:42.664Z,1.95
2019-06-10T14:02:48.867Z,1.72
2019-06-10T14:05:22.779Z,1.90
2019-06-10T14:07:55.665Z,1.70
2019-06-10T14:10:28.759Z,1.80
2019-06-10T14:13:04.000Z,1.85
2019-06-10T14:18:09.826Z,2.42
2019-06-10T14:23:18.722Z,2.00
2019-06-10T14:25:52.661Z,1.62
2019-06-10T14:28:39.927Z,1.80
2019-06-10T14:31:05.124Z,1.80
2019-06-10T14:33:36.299Z,2.08
2019-06-10T14:36:11.136Z,1.85
2019-06-10T14:38:44.223Z,2.02
2019-06-10T14:41:17.418Z,2.02
2019-06-10T14:43:52.962Z,1.92
2019-06-10T14:46:25.443Z,2.47
2019-06-10T14:48:58.556Z,2.10
2019-06-10T14:51:32.610Z,2.15
2019-06-10T14:54:05.636Z,2.10
2019-06-10T14:56:50.628Z,2.50
2019-06-10T14:59:17.870Z,1.90
2019-06-10T15:04:22.562Z,1.80
2019-06-10T15:06:55.499Z,2.10
2019-06-10T15:09:29.025Z,2.20
2019-06-10T15:12:02.858Z,1.87
2019-06-10T15:14:36.097Z,1.57
2019-06-10T15:17:10.623Z,1.65
2019-06-10T15:19:43.606Z,2.00
2019-06-10T15:22:17.102Z,1.82
2019-06-10T15:24:53.147Z,1.35
2019-06-10T15:27:30.670Z,1.80
2019-06-10T15:32:34.755Z,1.98
2019-06-10T15:35:08.703Z,1.55
2019-06-10T15:37:43.020Z,2.65
2019-06-10T15:42:50.335Z,1.90
2019-06-10T15:45:25.063Z,2.15
2019-06-10T15:47:58.051Z,1.65
2019-06-10T15:50:32.393Z,1.72
2019-06-10T15:53:05.363Z,1.87
2019-06-10T15:56:05.837Z,1.80
2019-06-10T15:58:16.001Z,1.70
2019-06-10T16:00:53.115Z,2.50
2019-06-10T16:03:25.784Z,2.77
2019-06-10T16:05:59.105Z,2.95
2019-06-10T16:08:32.583Z,2.72
2019-06-10T16:11:05.905Z,3.47
2019-06-10T16:13:43.025Z,2.50
2019-06-10T16:16:16.842Z,2.75
2019-06-10T16:18:52.656Z,2.80
2019-06-10T16:23:57.398Z,2.52
2019-06-10T16:26:30.489Z,3.12
2019-06-10T16:29:03.467Z,2.75
2019-06-10T16:31:36.772Z,2.30
2019-06-10T16:34:09.761Z,2.37
2019-06-10T16:36:43.057Z,2.10
2019-06-10T16:39:16.973Z,2.20
2019-06-10T16:41:52.190Z,2.37
2019-06-10T16:44:26.913Z,1.90
2019-06-10T16:46:59.780Z,2.12
2019-06-10T16:49:33.041Z,2.60
2019-06-10T16:52:06.114Z,2.98
2019-06-10T16:54:39.196Z,2.25
2019-06-10T16:57:12.493Z,2.00
2019-06-10T16:59:45.588Z,2.02
2019-06-10T17:02:19.306Z,2.20
2019-06-10T17:04:52.713Z,2.17
2019-06-10T17:07:26.895Z,2.00
2019-06-10T17:10:01.914Z,2.30
2019-06-10T17:12:34.931Z,2.33
2019-06-10T17:15:12.990Z,2.55
2019-06-10T17:17:47.154Z,2.87
2019-06-10T17:20:22.752Z,2.45
2019-06-10T17:25:28.106Z,2.70
2019-06-10T17:28:15.180Z,2.77
2019-06-10T17:33:08.875Z,3.12
2019-06-10T17:35:43.207Z,2.87
2019-06-10T17:38:16.283Z,3.47
2019-06-10T17:40:49.472Z,2.52
2019-06-10T17:43:23.288Z,2.85
2019-06-10T17:45:56.270Z,2.90
2019-06-10T17:48:30.725Z,11.97
2019-06-10T17:53:36.262Z,8.68
2019-06-10T17:56:09.866Z,5.37
2019-06-10T17:58:53.294Z,5.45
2019-06-10T18:03:50.059Z,3.15
2019-06-10T18:06:25.453Z,3.85
2019-06-10T18:11:32.845Z,6.08
2019-06-10T18:14:05.292Z,8.80
2019-06-10T18:16:38.390Z,11.30
2019-06-10T18:19:12.601Z,17.32
2019-06-10T18:21:45.693Z,16.80
2019-06-10T18:24:23.677Z,13.70
2019-06-10T18:26:55.455Z,14.95
2019-06-10T18:29:29.221Z,12.70
2019-06-10T18:32:03.401Z,19.45
2019-06-10T18:34:38.145Z,30.77
2019-06-10T18:37:11.401Z,24.50
2019-06-10T18:39:45.003Z,44.25
2019-06-10T18:42:18.403Z,33.20
2019-06-10T18:44:52.203Z,24.00
2019-06-10T18:47:25.402Z,23.93
2019-06-10T18:49:58.906Z,22.07
2019-06-10T18:52:32.667Z,15.53
2019-06-10T18:55:07.748Z,12.50
2019-06-10T18:57:42.621Z,6.65
2019-06-10T19:00:16.793Z,8.18
2019-06-10T19:02:49.784Z,5.15
2019-06-10T19:05:23.078Z,4.85
2019-06-10T19:07:56.275Z,3.75
2019-06-10T19:10:29.470Z,3.85
2019-06-10T19:13:02.628Z,4.47
2019-06-10T19:15:35.957Z,3.52
2019-06-10T19:18:13.160Z,3.00
2019-06-10T19:20:45.352Z,3.80
2019-06-10T19:23:18.507Z,3.42
2019-06-10T19:25:52.511Z,3.35
2019-06-10T19:28:25.810Z,3.80
2019-06-10T19:30:59.314Z,3.47
2019-06-10T19:33:35.200Z,4.62
2019-06-10T19:36:06.932Z,4.47
2019-06-10T19:38:42.893Z,4.05
2019-06-10T19:41:15.366Z,3.87
2019-06-10T19:43:48.463Z,4.20
2019-06-10T19:46:23.467Z,4.10
2019-06-10T19:49:02.705Z,3.83
2019-06-10T19:54:05.223Z,6.85
2019-06-10T19:56:39.635Z,8.25
2019-06-10T19:59:12.851Z,6.78
2019-06-10T20:01:48.648Z,4.95
2019-06-10T20:04:22.635Z,4.80
2019-06-10T20:06:56.098Z,4.85
2019-06-10T20:09:29.501Z,5.55
2019-06-10T20:12:02.692Z,5.03
2019-06-10T20:14:36.447Z,4.67
2019-06-10T20:17:09.691Z,3.80
2019-06-10T20:19:44.683Z,3.77
2019-06-10T20:22:17.927Z,5.20
2019-06-10T20:24:52.472Z,5.17
2019-06-10T20:27:25.742Z,5.40
2019-06-10T20:30:07.603Z,5.45
2019-06-10T20:32:33.821Z,5.55
2019-06-10T20:35:07.368Z,4.58
2019-06-10T20:37:44.246Z,4.55
2019-06-10T20:42:49.305Z,4.47
2019-06-10T20:45:23.218Z,4.45
2019-06-10T20:47:56.508Z,4.33
2019-06-10T20:50:32.134Z,4.35
2019-06-10T20:53:14.747Z,4.78
2019-06-10T20:55:43.317Z,5.00
2019-06-10T20:58:14.093Z,5.05
2019-06-10T21:00:52.257Z,5.53
2019-06-10T21:03:23.220Z,5.33
2019-06-10T21:05:56.335Z,4.75
2019-06-10T21:08:29.845Z,4.80
2019-06-10T21:11:03.262Z,5.00
2019-06-10T21:13:36.745Z,4.83
2019-06-10T21:16:12.498Z,4.95
2019-06-10T21:18:48.295Z,5.45
2019-06-10T21:21:22.456Z,5.15
2019-06-10T21:23:54.525Z,5.10
2019-06-10T21:26:27.825Z,4.92
2019-06-10T21:29:03.670Z,5.12
2019-06-10T21:31:36.466Z,5.92
2019-06-10T21:34:09.550Z,5.92
2019-06-10T21:36:43.363Z,5.87
2019-06-10T21:39:16.447Z,5.90
2019-06-10T21:41:49.970Z,5.28
2019-06-10T21:44:23.314Z,5.67
2019-06-10T21:46:57.256Z,5.10
2019-06-10T21:49:32.204Z,5.42
2019-06-10T21:52:05.688Z,4.97
2019-06-10T21:54:39.087Z,4.92
2019-06-10T21:57:12.281Z,5.03
2019-06-10T21:59:45.859Z,5.40
2019-06-10T22:02:19.900Z,4.97
2019-06-10T22:04:55.390Z,4.75
2019-06-10T22:07:27.819Z,5.80
2019-06-10T22:10:02.518Z,5.78
2019-06-10T22:12:35.842Z,4.72
2019-06-10T22:15:12.598Z,5.90
2019-06-10T22:17:46.254Z,5.92
2019-06-10T22:20:19.414Z,5.08
2019-06-10T22:22:53.645Z,5.28
2019-06-10T22:27:59.916Z,4.85
2019-06-10T22:30:33.012Z,5.40
2019-06-10T22:33:06.303Z,6.25
2019-06-10T22:35:39.494Z,4.90
2019-06-10T22:38:13.178Z,5.00
2019-06-10T22:40:46.856Z,5.20
2019-06-10T22:43:19.897Z,4.83
2019-06-10T22:45:55.491Z,5.03
2019-06-10T22:48:28.022Z,5.37
2019-06-10T22:51:01.114Z,5.60
2019-06-10T22:53:34.414Z,5.47
2019-06-10T22:56:07.811Z,4.92
2019-06-10T22:58:41.210Z,5.20
2019-06-10T23:01:14.605Z,5.45
2019-06-10T23:03:48.113Z,5.42
2019-06-10T23:06:23.235Z,5.53
2019-06-10T23:08:57.729Z,5.33
2019-06-10T23:11:32.314Z,5.30
2019-06-10T23:14:05.587Z,5.58
2019-06-10T23:16:38.781Z,5.20
2019-06-10T23:19:12.991Z,5.10
2019-06-10T23:21:46.294Z,5.73
2019-06-10T23:24:19.694Z,5.15
2019-06-10T23:26:53.779Z,5.28
2019-06-10T23:29:26.898Z,5.30
2019-06-10T23:32:05.943Z,5.28
2019-06-10T23:34:34.822Z,5.53
2019-06-10T23:37:08.117Z,5.65
2019-06-10T23:39:42.601Z,5.35
2019-06-10T23:42:15.732Z,5.12
2019-06-10T23:44:49.027Z,5.35
2019-06-10T23:47:22.429Z,5.25
2019-06-10T23:49:57.661Z,5.45
2019-06-10T23:52:33.026Z,5.65
2019-06-10T23:55:09.275Z,5.17
2019-06-10T23:57:42.363Z,5.03
